ENTCENDU

Guest
Details From ENTC - Tromso Langnes
To ENDU - Bardufoss
Flight Number -
Tags generated
Created
Modified
Stats Distance 40 nm / 74 km
Max Altitude 300 ft / 91 m
Waypoints 3
Social Downloads 3
Likes 0
Share VATSIM

Download

Looking for another format? Having issues loading an existing format? Contact us
Advertisement - Login to hide

Notes

Basic altitude profile: - Ascent Rate: 2500ft/min - Ascent Speed: 250kts - Cruise Altitude: 35000ft - Cruise Speed: 420kts - Descent Rate: 1500ft/min - Descent Speed: 250kts Options: - Use NATs: yes - Use PACOTS: yes - Use low airways: yes - Use high airways: yes

Route

ENTC BDF ENDU

ID Type Via Altitude Latitude Longitude Leg Dist Tot Dist Heading (true) Name
O ENTC APT - 0 ft / 0 m 69.68287˚ 18.91936˚ - 0 nm - Tromso Langnes
BDF VOR - 300 ft / 91 m 69.06489˚ 18.46617˚ 38 nm 38 nm 195° / 194° BARDUFOSS VOR-DME
O ENDU APT - 0 ft / 0 m 69.05593˚ 18.53890˚ 1 nm 39 nm 109° / 109° Bardufoss

Altitude Profile

Advertisement - Login to hide

ENTC

Details ICAO ENTC (TOS)
Name Tromso Langnes
Region Norway
Timezone Europe/Oslo (UTC+1.0)
Stats Elevation 31 ft / 9 m (AMSL)
Location 69.682866° 18.919363°
Runways 1
Magnetic Variation 8.797° E

METAR

ENTC 120250Z 19015KT 9999 NSC M01/M07 Q0998 RMK WIND 2600FT 19018KT

Decode

TAF

TAF ENTC 112300Z 1200/1224 20008KT CAVOK TEMPO 1200/1206 20020KT

Decode

Departure Runways

ID Width Length Bearing (true) Bearing (mag) Surface Threshold Offset Overrun Length
01 141 ft / 43 m 7,740 ft / 2,359 m 12.19° 3.39° Asphalt 0 ft / 0 m 289 ft / 88 m
19 141 ft / 43 m 7,740 ft / 2,359 m 192.21° 183.41° Asphalt 1,227 ft / 374 m 482 ft / 147 m

ENDU

Details ICAO ENDU (BDU)
Name Bardufoss
Region Norway
Timezone Europe/Oslo (UTC+1.0)
Stats Elevation 252 ft / 77 m (AMSL)
Location 69.055932° 18.538902°
Runways 1
Magnetic Variation 8.412° E

METAR

ENDU 120250Z AUTO VRB01KT 9999 NCD M17/M18 Q0999 RMK WIND 1100FT 20005KT WIND 2200FT 17014KT

Decode

TAF

TAF TAF ENDU 112300Z 1200/1224 VRB05KT 9999 FEW050 PROB30 TEMPO 1200/1209 0800 FZFG VV002

Decode

Destination Runways

ID Width Length Bearing (true) Bearing (mag) Surface Threshold Offset Overrun Length
10 148 ft / 45 m 8,022 ft / 2,445 m 109.02° 100.61° Asphalt 0 ft / 0 m 890 ft / 271 m
28 148 ft / 45 m 8,022 ft / 2,445 m 289.08° 280.67° Asphalt 0 ft / 0 m 890 ft / 271 m

Approach Navaids

Runway Type Ident Frequency Range Bearing (true) Bearing (mag) Slope Elevation
10 Localiser DU 110.30 MHz 18 nm / 33 km 114.14° 105.73° - 269 ft / 82 m (AMSL)
10 DME DU 110.30 MHz 18 nm / 33 km - - - 269 ft / 82 m (AMSL)
28 Localiser BF 108.70 MHz 18 nm / 33 km 285.23° 276.82° - 258 ft / 79 m (AMSL)
28 Glidescope BF 108.70 MHz 20 nm / 37 km 289.05° 280.64° 3.80° 252 ft / 77 m (AMSL)

Popular Alternatives